createdAt,value
2019-03-08T00:00:05.347Z,2.03
2019-03-08T00:02:33.820Z,2.87
2019-03-08T00:05:02.259Z,1.87
2019-03-08T00:07:30.655Z,2.40
2019-03-08T00:09:59.064Z,2.43
2019-03-08T00:12:27.482Z,1.93
2019-03-08T00:14:55.906Z,2.23
2019-03-08T00:17:24.316Z,2.10
2019-03-08T00:19:52.730Z,1.80
2019-03-08T00:22:24.126Z,1.87
2019-03-08T00:24:52.518Z,1.97
2019-03-08T00:27:20.930Z,1.73
2019-03-08T00:29:49.361Z,2.37
2019-03-08T00:32:17.752Z,2.00
2019-03-08T00:34:46.167Z,2.63
2019-03-08T00:37:14.659Z,2.80
2019-03-08T00:39:43.081Z,2.07
2019-03-08T00:42:11.624Z,2.20
2019-03-08T00:44:40.033Z,2.30
2019-03-08T00:47:08.523Z,1.90
2019-03-08T00:49:37.001Z,2.43
2019-03-08T00:52:05.482Z,2.50
2019-03-08T00:54:33.879Z,2.10
2019-03-08T00:57:02.278Z,3.83
2019-03-08T00:59:30.662Z,2.27
2019-03-08T01:01:59.156Z,2.27
2019-03-08T01:04:27.707Z,1.90
2019-03-08T01:06:56.187Z,2.00
2019-03-08T01:09:24.580Z,2.20
2019-03-08T01:11:53.012Z,2.00
2019-03-08T01:14:21.448Z,2.53
2019-03-08T01:16:49.916Z,1.93
2019-03-08T01:19:18.409Z,2.10
2019-03-08T01:21:46.813Z,1.83
2019-03-08T01:24:15.255Z,2.23
2019-03-08T01:26:43.647Z,1.90
2019-03-08T01:29:12.130Z,2.17
2019-03-08T01:31:40.539Z,1.80
2019-03-08T01:34:08.933Z,2.60
2019-03-08T01:36:37.439Z,2.57
2019-03-08T01:39:07.675Z,2.10
2019-03-08T01:41:36.127Z,1.97
2019-03-08T01:44:04.622Z,2.80
2019-03-08T01:46:33.068Z,2.00
2019-03-08T01:49:01.504Z,2.10
2019-03-08T01:51:29.927Z,1.57
2019-03-08T01:53:58.363Z,2.00
2019-03-08T01:56:26.826Z,2.27
2019-03-08T01:58:55.253Z,2.23
2019-03-08T02:01:23.658Z,2.60
2019-03-08T02:03:52.147Z,2.13
2019-03-08T02:06:20.695Z,2.00
2019-03-08T02:08:49.084Z,2.80
2019-03-08T02:11:17.588Z,2.50
2019-03-08T02:13:46.008Z,2.03
2019-03-08T02:16:14.442Z,2.20
2019-03-08T02:18:42.849Z,2.10
2019-03-08T02:21:11.270Z,2.57
2019-03-08T02:23:39.687Z,2.20
2019-03-08T02:26:08.159Z,2.50
2019-03-08T02:28:36.566Z,1.97
2019-03-08T02:31:08.206Z,2.37
2019-03-08T02:33:36.627Z,2.20
2019-03-08T02:36:05.093Z,2.60
2019-03-08T02:38:33.507Z,1.87
2019-03-08T02:41:00.901Z,2.37
2019-03-08T02:43:29.335Z,1.97
2019-03-08T02:45:57.833Z,2.50
2019-03-08T02:48:26.234Z,2.47
2019-03-08T02:50:54.676Z,2.33
2019-03-08T02:53:23.072Z,2.40
2019-03-08T02:55:51.488Z,2.40
2019-03-08T02:58:19.894Z,2.20
2019-03-08T03:00:48.300Z,2.80
2019-03-08T03:03:17.546Z,2.30
2019-03-08T03:05:46.023Z,2.60
2019-03-08T03:08:14.447Z,2.40
2019-03-08T03:10:42.916Z,2.33
2019-03-08T03:13:11.410Z,2.33
2019-03-08T03:15:39.883Z,2.70
2019-03-08T03:18:08.272Z,2.53
2019-03-08T03:20:37.466Z,2.40
2019-03-08T03:23:05.871Z,1.63
2019-03-08T03:25:34.288Z,1.50
2019-03-08T03:28:02.788Z,1.73
2019-03-08T03:30:31.254Z,2.10
2019-03-08T03:32:59.731Z,1.50
2019-03-08T03:35:28.401Z,1.90
2019-03-08T03:37:56.794Z,2.00
2019-03-08T03:40:25.196Z,1.83
2019-03-08T03:42:53.678Z,2.03
2019-03-08T03:45:22.323Z,2.10
2019-03-08T03:47:50.801Z,2.10
2019-03-08T03:50:19.671Z,2.07
2019-03-08T03:52:48.081Z,2.10
2019-03-08T03:55:17.726Z,2.80
2019-03-08T03:57:46.260Z,3.17
2019-03-08T04:00:22.602Z,2.47
2019-03-08T04:02:51.357Z,2.93
2019-03-08T04:05:19.993Z,2.43
2019-03-08T04:07:48.448Z,2.13
2019-03-08T04:10:17.919Z,1.93
2019-03-08T04:12:46.387Z,1.90
2019-03-08T04:15:19.692Z,1.47
2019-03-08T04:17:48.392Z,1.80
2019-03-08T04:20:18.163Z,1.90
2019-03-08T04:22:46.714Z,2.07
2019-03-08T04:25:15.267Z,1.77
2019-03-08T04:27:43.726Z,2.30
2019-03-08T04:30:40.063Z,2.20
2019-03-08T04:33:08.472Z,1.70
2019-03-08T04:35:36.876Z,2.20
2019-03-08T04:38:05.284Z,2.00
2019-03-08T04:40:33.703Z,1.93
2019-03-08T04:43:02.138Z,2.20
2019-03-08T04:45:30.529Z,2.13
2019-03-08T04:47:58.939Z,2.60
2019-03-08T04:50:27.330Z,2.87
2019-03-08T04:52:55.750Z,2.40
2019-03-08T04:55:24.146Z,2.70
2019-03-08T04:57:52.564Z,2.30
2019-03-08T05:00:22.326Z,2.50
2019-03-08T05:02:50.744Z,2.93
2019-03-08T05:05:19.183Z,3.10
2019-03-08T05:07:47.737Z,3.00
2019-03-08T05:10:17.709Z,2.77
2019-03-08T05:12:47.694Z,2.80
2019-03-08T05:15:17.252Z,2.40
2019-03-08T05:17:45.635Z,2.97
2019-03-08T05:20:14.128Z,3.10
2019-03-08T05:22:42.585Z,2.87
2019-03-08T05:25:13.407Z,2.70
2019-03-08T05:27:41.890Z,3.27
2019-03-08T05:30:15.511Z,3.20
2019-03-08T05:32:45.403Z,2.90
2019-03-08T05:35:14.731Z,3.97
2019-03-08T05:37:43.236Z,3.03
2019-03-08T05:40:13.861Z,3.30
2019-03-08T05:42:42.323Z,3.90
2019-03-08T05:45:12.388Z,3.70
2019-03-08T05:47:40.781Z,3.70
2019-03-08T05:50:10.519Z,3.10
2019-03-08T05:52:39.004Z,3.87
2019-03-08T05:55:09.610Z,5.80
2019-03-08T05:57:38.006Z,3.80
2019-03-08T06:00:16.244Z,4.20
2019-03-08T06:02:44.682Z,5.50
2019-03-08T06:05:13.166Z,5.10
2019-03-08T06:07:41.552Z,4.20
2019-03-08T06:10:33.579Z,5.07
2019-03-08T06:13:03.741Z,5.60
2019-03-08T06:15:32.229Z,4.30
2019-03-08T06:18:00.700Z,5.43
2019-03-08T06:20:29.116Z,7.57
2019-03-08T06:22:57.656Z,4.67
2019-03-08T06:25:26.335Z,4.27
2019-03-08T06:27:54.825Z,3.90
2019-03-08T06:30:23.368Z,4.00
2019-03-08T06:32:52.056Z,4.40
2019-03-08T06:35:20.509Z,3.93
2019-03-08T06:37:48.957Z,3.90
2019-03-08T06:40:17.502Z,3.67
2019-03-08T06:42:45.908Z,4.43
2019-03-08T06:45:18.181Z,4.43
2019-03-08T06:47:51.186Z,5.27
2019-03-08T06:50:19.691Z,5.40
2019-03-08T06:52:48.093Z,5.53
2019-03-08T06:55:17.580Z,7.10
2019-03-08T06:57:46.044Z,5.63
2019-03-08T07:00:35.286Z,6.30
2019-03-08T07:03:05.248Z,6.30
2019-03-08T07:05:33.668Z,6.30
2019-03-08T07:08:05.857Z,7.60
2019-03-08T07:10:34.266Z,7.00
2019-03-08T07:13:03.843Z,7.27
2019-03-08T07:15:32.528Z,6.70
2019-03-08T07:18:00.988Z,5.83
2019-03-08T07:20:33.855Z,6.53
2019-03-08T07:23:11.125Z,7.10
2019-03-08T07:25:41.386Z,7.57
2019-03-08T07:28:20.024Z,5.80
2019-03-08T07:30:57.656Z,6.30
2019-03-08T07:33:37.001Z,6.57
2019-03-08T07:36:11.874Z,5.50
2019-03-08T07:38:54.171Z,5.03
2019-03-08T07:41:28.861Z,6.73
2019-03-08T07:44:02.488Z,5.00
2019-03-08T07:46:48.861Z,4.90
2019-03-08T07:49:18.938Z,4.20
2019-03-08T07:51:57.545Z,5.30
2019-03-08T07:54:27.580Z,4.90
2019-03-08T07:57:00.164Z,4.87
2019-03-08T07:59:39.175Z,4.77
2019-03-08T08:02:09.581Z,9.00
2019-03-08T08:04:48.626Z,5.07
2019-03-08T08:07:21.682Z,4.40
2019-03-08T08:10:05.032Z,4.90
2019-03-08T08:12:50.477Z,5.03
2019-03-08T08:15:20.537Z,5.10
2019-03-08T08:17:59.437Z,5.20
2019-03-08T08:20:49.040Z,6.50
2019-03-08T08:23:19.160Z,4.67
2019-03-08T08:26:04.357Z,4.63
2019-03-08T08:28:34.422Z,4.47
2019-03-08T08:31:10.546Z,4.00
2019-03-08T08:33:57.131Z,4.97
2019-03-08T08:36:29.813Z,4.80
2019-03-08T08:39:12.099Z,4.70
2019-03-08T08:41:42.178Z,5.03
2019-03-08T08:44:12.223Z,4.60
2019-03-08T08:46:45.104Z,5.80
2019-03-08T08:49:17.867Z,3.97
2019-03-08T08:51:47.907Z,5.10
2019-03-08T08:54:24.044Z,4.53
2019-03-08T08:56:56.608Z,4.40
2019-03-08T08:59:26.684Z,4.50
2019-03-08T09:01:56.751Z,3.80
2019-03-08T09:04:26.835Z,4.30
2019-03-08T09:06:59.647Z,3.93
2019-03-08T09:09:41.804Z,3.70
2019-03-08T09:12:27.263Z,4.13
2019-03-08T09:15:13.783Z,4.60
2019-03-08T09:17:52.861Z,3.90
2019-03-08T09:20:28.688Z,8.50
2019-03-08T09:22:58.765Z,3.87
2019-03-08T09:25:40.788Z,3.40
2019-03-08T09:28:25.815Z,3.77
2019-03-08T09:31:01.976Z,3.77
2019-03-08T09:33:37.849Z,2.97
2019-03-08T09:36:10.671Z,4.10
2019-03-08T09:38:43.843Z,4.13
2019-03-08T09:41:20.033Z,4.07
2019-03-08T09:43:53.398Z,3.50
2019-03-08T09:46:23.562Z,2.80
2019-03-08T09:48:56.358Z,2.87
2019-03-08T09:51:27.103Z,4.17
2019-03-08T09:53:57.138Z,3.93
2019-03-08T09:56:43.426Z,3.43
2019-03-08T09:59:13.541Z,2.80
2019-03-08T10:01:59.861Z,3.40
2019-03-08T10:04:29.905Z,3.00
2019-03-08T10:06:59.950Z,3.10
2019-03-08T10:09:30.020Z,3.17
2019-03-08T10:12:00.243Z,3.10
2019-03-08T10:14:30.359Z,3.70
2019-03-08T10:17:00.577Z,4.20
2019-03-08T10:19:42.832Z,4.57
2019-03-08T10:22:12.873Z,3.70
2019-03-08T10:24:42.916Z,3.17
2019-03-08T10:27:16.143Z,3.60
2019-03-08T10:29:46.203Z,3.93
2019-03-08T10:32:16.260Z,3.23
2019-03-08T10:34:52.279Z,3.67
2019-03-08T10:37:22.359Z,3.50
2019-03-08T10:40:01.507Z,3.20
2019-03-08T10:42:37.346Z,3.40
2019-03-08T10:45:09.453Z,3.70
2019-03-08T10:47:39.534Z,3.30
2019-03-08T10:50:15.964Z,3.60
2019-03-08T10:52:51.981Z,4.30
2019-03-08T10:55:28.059Z,3.30
2019-03-08T10:57:58.100Z,3.23
2019-03-08T11:00:31.240Z,3.33
2019-03-08T11:03:07.302Z,3.77
2019-03-08T11:05:40.076Z,3.33
2019-03-08T11:08:29.565Z,3.50
2019-03-08T11:11:06.645Z,3.57
2019-03-08T11:13:53.076Z,2.90
2019-03-08T11:16:29.536Z,3.57
2019-03-08T11:19:15.747Z,3.13
2019-03-08T11:22:00.588Z,3.20
2019-03-08T11:24:46.529Z,2.60
2019-03-08T11:27:33.195Z,2.93
2019-03-08T11:30:21.814Z,3.23
2019-03-08T11:32:54.860Z,3.33
2019-03-08T11:35:25.016Z,3.00
2019-03-08T11:38:07.254Z,3.13
2019-03-08T11:40:39.986Z,2.43
2019-03-08T11:43:10.130Z,3.53
2019-03-08T11:45:51.745Z,2.83
2019-03-08T11:48:38.304Z,3.23
2019-03-08T11:51:26.477Z,2.60
2019-03-08T11:53:56.693Z,3.17
2019-03-08T11:56:35.814Z,2.67
2019-03-08T11:59:11.492Z,2.87
2019-03-08T12:01:59.129Z,3.13
2019-03-08T12:04:47.606Z,2.80
2019-03-08T12:07:17.687Z,2.53
2019-03-08T12:10:00.147Z,3.10
2019-03-08T12:12:30.426Z,2.70
2019-03-08T12:15:03.295Z,3.60
2019-03-08T12:17:45.581Z,3.73
2019-03-08T12:20:15.744Z,3.73
2019-03-08T12:23:02.082Z,2.67
2019-03-08T12:25:32.168Z,2.80
2019-03-08T12:28:18.190Z,2.87
2019-03-08T12:30:48.279Z,3.00
2019-03-08T12:33:29.965Z,4.07
2019-03-08T12:36:14.967Z,3.50
2019-03-08T12:38:45.064Z,2.80
2019-03-08T12:41:17.517Z,3.00
2019-03-08T12:44:03.523Z,3.20
2019-03-08T12:46:37.016Z,3.40
2019-03-08T12:49:07.075Z,3.27
2019-03-08T12:51:37.167Z,2.93
2019-03-08T12:54:07.349Z,2.70
2019-03-08T12:56:37.436Z,2.63
2019-03-08T12:59:07.753Z,3.00
2019-03-08T13:01:40.324Z,3.23
2019-03-08T13:04:13.369Z,2.30
2019-03-08T13:06:49.235Z,3.70
2019-03-08T13:09:19.575Z,2.70
2019-03-08T13:11:48.020Z,3.17
2019-03-08T13:14:16.498Z,3.70
2019-03-08T13:16:44.927Z,2.93
2019-03-08T13:19:13.349Z,2.60
2019-03-08T13:21:41.851Z,3.53
2019-03-08T13:24:10.513Z,3.60
2019-03-08T13:26:39.003Z,2.47
2019-03-08T13:29:07.517Z,2.67
2019-03-08T13:31:35.915Z,3.00
2019-03-08T13:34:04.381Z,3.27
2019-03-08T13:36:33.054Z,3.20
2019-03-08T13:39:01.659Z,3.20
2019-03-08T13:41:30.075Z,3.10
2019-03-08T13:44:00.604Z,3.60
2019-03-08T13:46:28.949Z,2.93
2019-03-08T13:48:57.447Z,2.50
2019-03-08T13:51:26.140Z,3.20
2019-03-08T13:53:54.875Z,2.90
2019-03-08T13:56:23.275Z,3.13
2019-03-08T13:58:51.698Z,3.73
2019-03-08T14:01:20.102Z,3.20
2019-03-08T14:03:48.537Z,2.80
2019-03-08T14:06:16.932Z,3.20
2019-03-08T14:08:45.643Z,3.63
2019-03-08T14:11:14.212Z,4.27
2019-03-08T14:13:42.689Z,3.10
2019-03-08T14:16:11.117Z,4.33
2019-03-08T14:18:39.531Z,3.00
2019-03-08T14:21:08.030Z,3.20
2019-03-08T14:23:36.841Z,3.30
2019-03-08T14:26:05.927Z,2.83
2019-03-08T14:28:34.719Z,3.03
2019-03-08T14:31:04.855Z,3.17
2019-03-08T14:33:34.386Z,2.90
2019-03-08T14:36:06.019Z,3.20
2019-03-08T14:38:37.086Z,3.20
2019-03-08T14:41:09.874Z,2.90
2019-03-08T14:43:39.950Z,2.57
2019-03-08T14:46:13.056Z,3.30
2019-03-08T14:48:42.555Z,2.97
2019-03-08T14:51:13.061Z,3.17
2019-03-08T14:53:41.615Z,2.90
2019-03-08T14:56:10.027Z,2.77
2019-03-08T14:58:40.269Z,3.30
2019-03-08T15:01:08.622Z,2.80
2019-03-08T15:03:43.318Z,2.80
2019-03-08T15:06:07.321Z,2.70
2019-03-08T15:08:35.773Z,2.50
2019-03-08T15:11:04.300Z,2.70
2019-03-08T15:13:32.711Z,2.13
2019-03-08T15:16:02.110Z,2.43
2019-03-08T15:18:31.442Z,2.50
2019-03-08T15:21:00.811Z,2.80
2019-03-08T15:23:29.324Z,2.43
2019-03-08T15:25:57.757Z,2.13
2019-03-08T15:28:26.587Z,2.40
2019-03-08T15:30:55.132Z,2.67
2019-03-08T15:33:23.590Z,2.50
2019-03-08T15:35:52.027Z,2.03
2019-03-08T15:38:20.500Z,1.90
2019-03-08T15:40:48.976Z,2.20
2019-03-08T15:43:17.437Z,2.40
2019-03-08T15:45:46.251Z,1.97
2019-03-08T15:48:15.937Z,2.10
2019-03-08T15:50:46.752Z,2.60
2019-03-08T15:53:14.775Z,2.13
2019-03-08T15:55:52.526Z,1.90
2019-03-08T15:58:13.648Z,2.43
2019-03-08T16:00:42.159Z,1.93
2019-03-08T16:03:10.672Z,3.27
2019-03-08T16:05:39.166Z,2.20
2019-03-08T16:08:07.565Z,2.00
2019-03-08T16:10:36.126Z,2.07
2019-03-08T16:13:04.662Z,2.30
2019-03-08T16:15:33.148Z,2.30
2019-03-08T16:18:01.560Z,2.60
2019-03-08T16:20:29.963Z,2.00
2019-03-08T16:22:58.499Z,2.70
2019-03-08T16:25:27.010Z,2.83
2019-03-08T16:27:55.530Z,1.90
2019-03-08T16:30:39.858Z,2.20
2019-03-08T16:33:17.706Z,3.70
2019-03-08T16:36:04.298Z,2.57
2019-03-08T16:38:34.233Z,3.50
2019-03-08T16:41:04.297Z,1.90
2019-03-08T16:43:34.112Z,2.30
2019-03-08T16:46:06.936Z,2.73
2019-03-08T16:48:40.307Z,1.97
2019-03-08T16:51:20.459Z,2.20
2019-03-08T16:54:03.661Z,2.13
2019-03-08T16:56:45.416Z,2.77
2019-03-08T16:59:33.601Z,2.30
2019-03-08T17:02:15.424Z,2.17
2019-03-08T17:04:54.118Z,2.70
2019-03-08T17:07:36.436Z,3.20
2019-03-08T17:10:07.461Z,2.47
2019-03-08T17:12:52.442Z,4.23
2019-03-08T17:15:38.719Z,3.90
2019-03-08T17:18:25.118Z,2.20
2019-03-08T17:20:57.941Z,2.00
2019-03-08T17:23:28.099Z,2.53
2019-03-08T17:26:16.444Z,2.70
2019-03-08T17:29:02.944Z,2.50
2019-03-08T17:31:33.000Z,3.50
2019-03-08T17:34:19.135Z,2.10
2019-03-08T17:37:01.595Z,1.93
2019-03-08T17:39:43.609Z,3.10
2019-03-08T17:42:30.189Z,2.33
2019-03-08T17:45:09.214Z,3.17
2019-03-08T17:47:39.292Z,2.70
2019-03-08T17:50:12.516Z,3.20
2019-03-08T17:52:54.565Z,3.00
2019-03-08T17:55:30.685Z,2.60
2019-03-08T17:58:13.118Z,2.50
2019-03-08T18:00:43.245Z,2.50
2019-03-08T18:03:15.805Z,2.40
2019-03-08T18:05:48.588Z,2.70
2019-03-08T18:08:36.736Z,1.87
2019-03-08T18:11:22.831Z,1.93
2019-03-08T18:13:58.859Z,2.00
2019-03-08T18:16:32.090Z,2.60
2019-03-08T18:19:02.177Z,2.10
2019-03-08T18:21:37.757Z,3.00
2019-03-08T18:24:08.076Z,2.80
2019-03-08T18:26:38.148Z,2.80
2019-03-08T18:29:11.205Z,3.47
2019-03-08T18:31:53.389Z,3.30
2019-03-08T18:34:29.341Z,3.20
2019-03-08T18:37:02.096Z,3.43
2019-03-08T18:39:35.125Z,2.80
2019-03-08T18:42:05.216Z,3.17
2019-03-08T18:44:52.736Z,2.53
2019-03-08T18:47:28.286Z,4.07
2019-03-08T18:50:04.108Z,3.10
2019-03-08T18:52:34.167Z,3.20
2019-03-08T18:55:10.033Z,3.60
2019-03-08T18:57:56.264Z,2.67
2019-03-08T19:00:28.794Z,2.70
2019-03-08T19:03:07.396Z,2.37
2019-03-08T19:05:43.294Z,2.30
2019-03-08T19:08:19.103Z,2.70
2019-03-08T19:11:01.328Z,2.77
2019-03-08T19:13:31.367Z,3.27
2019-03-08T19:16:03.916Z,4.50
2019-03-08T19:18:36.970Z,3.53
2019-03-08T19:21:18.927Z,3.43
2019-03-08T19:23:51.834Z,3.30
2019-03-08T19:26:24.846Z,3.90
2019-03-08T19:28:54.971Z,3.20
2019-03-08T19:31:40.128Z,3.73
2019-03-08T19:34:10.176Z,4.07
2019-03-08T19:36:52.452Z,3.50
2019-03-08T19:39:38.593Z,3.53
2019-03-08T19:42:14.847Z,3.20
2019-03-08T19:44:44.950Z,3.50
2019-03-08T19:47:31.457Z,3.27
2019-03-08T19:50:01.516Z,4.90
2019-03-08T19:52:47.767Z,3.37
2019-03-08T19:55:23.943Z,2.90
2019-03-08T19:58:10.414Z,3.40
2019-03-08T20:00:49.471Z,4.90
2019-03-08T20:03:19.629Z,3.70
2019-03-08T20:05:49.787Z,3.33
2019-03-08T20:08:25.680Z,3.83
2019-03-08T20:10:58.760Z,3.77
2019-03-08T20:13:34.521Z,3.37
2019-03-08T20:16:07.464Z,4.03
2019-03-08T20:18:43.180Z,3.37
2019-03-08T20:21:22.162Z,3.30
2019-03-08T20:24:01.121Z,4.80
2019-03-08T20:26:36.939Z,3.43
2019-03-08T20:29:09.506Z,3.80
2019-03-08T20:31:55.981Z,3.60
2019-03-08T20:34:31.809Z,3.53
2019-03-08T20:37:07.686Z,5.20
2019-03-08T20:39:39.776Z,3.77
2019-03-08T20:42:10.057Z,3.70
2019-03-08T20:44:46.108Z,4.43
2019-03-08T20:47:19.100Z,3.83
2019-03-08T20:49:47.529Z,6.20
2019-03-08T20:52:16.200Z,7.70
2019-03-08T20:54:44.618Z,4.20
2019-03-08T20:57:13.124Z,3.63
2019-03-08T20:59:41.538Z,3.10
2019-03-08T21:02:10.047Z,3.50
2019-03-08T21:04:38.566Z,4.13
2019-03-08T21:07:07.127Z,3.90
2019-03-08T21:09:35.626Z,3.97
2019-03-08T21:12:04.107Z,4.10
2019-03-08T21:14:32.594Z,4.80
2019-03-08T21:17:01.006Z,4.57
2019-03-08T21:19:29.448Z,5.87
2019-03-08T21:21:57.926Z,4.80
2019-03-08T21:24:26.415Z,4.03
2019-03-08T21:26:54.834Z,3.13
2019-03-08T21:29:23.333Z,3.57
2019-03-08T21:31:51.838Z,3.93
2019-03-08T21:34:20.589Z,4.60
2019-03-08T21:36:49.056Z,3.53
2019-03-08T21:39:17.559Z,3.93
2019-03-08T21:41:45.960Z,4.20
2019-03-08T21:44:14.412Z,6.83
2019-03-08T21:46:42.875Z,5.17
2019-03-08T21:49:12.079Z,4.87
2019-03-08T21:51:40.546Z,3.60
2019-03-08T21:54:08.987Z,4.47
2019-03-08T21:56:37.389Z,3.43
2019-03-08T21:59:05.896Z,4.00
2019-03-08T22:01:34.475Z,6.13
2019-03-08T22:04:04.525Z,4.10
2019-03-08T22:06:32.953Z,5.37
2019-03-08T22:09:05.763Z,3.90
2019-03-08T22:11:35.975Z,3.80
2019-03-08T22:14:04.696Z,3.70
2019-03-08T22:16:33.134Z,4.07
2019-03-08T22:19:01.534Z,3.63
2019-03-08T22:21:30.062Z,3.63
2019-03-08T22:23:58.648Z,3.80
2019-03-08T22:26:27.101Z,3.13
2019-03-08T22:28:55.513Z,3.80
2019-03-08T22:31:23.937Z,6.50
2019-03-08T22:33:52.389Z,6.00
2019-03-08T22:36:20.794Z,3.30
2019-03-08T22:38:49.299Z,3.47
2019-03-08T22:41:17.889Z,2.77
2019-03-08T22:43:46.326Z,4.00
2019-03-08T22:46:14.734Z,2.80
2019-03-08T22:48:43.139Z,3.10
2019-03-08T22:51:11.565Z,3.60
2019-03-08T22:53:39.952Z,2.73
2019-03-08T22:56:08.385Z,4.67
2019-03-08T22:58:36.773Z,3.23
2019-03-08T23:01:08.910Z,3.07
2019-03-08T23:03:37.397Z,3.00
2019-03-08T23:06:06.063Z,3.50
2019-03-08T23:08:34.481Z,4.30
2019-03-08T23:11:03.038Z,3.47
2019-03-08T23:13:31.489Z,3.30
2019-03-08T23:16:00.024Z,2.70
2019-03-08T23:18:28.546Z,3.80
2019-03-08T23:20:57.803Z,3.40
2019-03-08T23:23:26.251Z,3.47
2019-03-08T23:25:54.730Z,2.97
2019-03-08T23:28:24.775Z,3.27
2019-03-08T23:31:11.283Z,3.80
2019-03-08T23:33:39.700Z,4.10
2019-03-08T23:36:08.130Z,3.87
2019-03-08T23:38:36.593Z,3.90
2019-03-08T23:41:05.148Z,3.33
2019-03-08T23:43:33.922Z,3.20
2019-03-08T23:46:02.350Z,3.30
2019-03-08T23:48:32.877Z,3.67
2019-03-08T23:51:01.308Z,4.60
2019-03-08T23:53:29.710Z,3.43
2019-03-08T23:55:58.129Z,2.80
2019-03-08T23:58:26.527Z,2.50
